createdAt,value
2018-09-30T00:00:24.690Z,607
2018-09-30T00:01:31.627Z,606
2018-09-30T00:02:38.837Z,608
2018-09-30T00:03:46.061Z,607
2018-09-30T00:04:52.988Z,608
2018-09-30T00:06:00.213Z,608
2018-09-30T00:07:07.425Z,607
2018-09-30T00:08:14.649Z,606
2018-09-30T00:09:21.859Z,607
2018-09-30T00:10:29.085Z,608
2018-09-30T00:11:35.746Z,607
2018-09-30T00:12:42.697Z,607
2018-09-30T00:13:49.913Z,608
2018-09-30T00:14:57.120Z,607
2018-09-30T00:16:04.329Z,607
2018-09-30T00:17:11.539Z,607
2018-09-30T00:18:18.733Z,607
2018-09-30T00:19:26.064Z,608
2018-09-30T00:20:33.359Z,607
2018-09-30T00:21:40.582Z,607
2018-09-30T00:22:47.788Z,608
2018-09-30T00:23:55.018Z,608
2018-09-30T00:25:02.234Z,608
2018-09-30T00:26:09.464Z,608
2018-09-30T00:27:16.675Z,608
2018-09-30T00:28:23.887Z,607
2018-09-30T00:29:31.101Z,608
2018-09-30T00:30:38.312Z,608
2018-09-30T00:31:45.521Z,608
2018-09-30T00:32:52.492Z,608
2018-09-30T00:33:59.695Z,608
2018-09-30T00:35:06.912Z,608
2018-09-30T00:36:14.226Z,608
2018-09-30T00:37:21.558Z,608
2018-09-30T00:38:28.490Z,608
2018-09-30T00:39:35.436Z,608
2018-09-30T00:40:42.374Z,608
2018-09-30T00:41:49.311Z,607
2018-09-30T00:42:56.521Z,608
2018-09-30T00:44:03.744Z,607
2018-09-30T00:45:10.957Z,607
2018-09-30T00:46:17.894Z,607
2018-09-30T00:47:24.828Z,608
2018-09-30T00:48:32.047Z,608
2018-09-30T00:49:39.269Z,608
2018-09-30T00:50:46.500Z,610
2018-09-30T00:51:53.708Z,609
2018-09-30T00:53:00.937Z,609
2018-09-30T00:54:08.144Z,611
2018-09-30T00:55:15.359Z,610
2018-09-30T00:56:22.566Z,610
2018-09-30T00:57:29.781Z,611
2018-09-30T00:58:36.697Z,611
2018-09-30T00:59:43.932Z,611
2018-09-30T01:00:51.158Z,609
2018-09-30T01:01:58.403Z,610
2018-09-30T01:03:05.608Z,610
2018-09-30T01:04:12.811Z,611
2018-09-30T01:05:19.753Z,609
2018-09-30T01:06:26.962Z,609
2018-09-30T01:07:34.161Z,610
2018-09-30T01:08:41.091Z,611
2018-09-30T01:09:48.299Z,610
2018-09-30T01:10:55.523Z,611
2018-09-30T01:12:02.741Z,611
2018-09-30T01:13:09.964Z,610
2018-09-30T01:14:17.171Z,610
2018-09-30T01:15:24.379Z,611
2018-09-30T01:16:31.597Z,610
2018-09-30T01:17:38.813Z,610
2018-09-30T01:18:46.026Z,610
2018-09-30T01:19:53.238Z,609
2018-09-30T01:21:00.447Z,609
2018-09-30T01:22:07.383Z,609
2018-09-30T01:23:14.592Z,608
2018-09-30T01:24:21.805Z,609
2018-09-30T01:25:29.019Z,608
2018-09-30T01:26:35.954Z,609
2018-09-30T01:27:42.890Z,610
2018-09-30T01:28:50.111Z,609
2018-09-30T01:29:57.323Z,609
2018-09-30T01:31:04.577Z,609
2018-09-30T01:32:11.792Z,609
2018-09-30T01:33:19.013Z,610
2018-09-30T01:34:26.227Z,609
2018-09-30T01:35:33.432Z,609
2018-09-30T01:36:40.372Z,609
2018-09-30T01:37:47.316Z,609
2018-09-30T01:38:54.532Z,608
2018-09-30T01:40:01.160Z,609
2018-09-30T01:41:08.372Z,608
2018-09-30T01:42:15.582Z,608
2018-09-30T01:43:22.821Z,608
2018-09-30T01:44:30.029Z,607
2018-09-30T01:45:37.242Z,609
2018-09-30T01:46:44.462Z,610
2018-09-30T01:47:51.670Z,610
2018-09-30T01:48:58.900Z,610
2018-09-30T01:50:06.114Z,610
2018-09-30T01:51:13.342Z,610
2018-09-30T01:52:20.580Z,611
2018-09-30T01:53:27.792Z,611
2018-09-30T01:54:35.012Z,611
2018-09-30T01:55:42.239Z,611
2018-09-30T01:56:49.465Z,609
2018-09-30T01:57:56.918Z,609
2018-09-30T01:59:04.134Z,609
2018-09-30T02:00:11.346Z,608
2018-09-30T02:01:18.552Z,609
2018-09-30T02:02:25.790Z,609
2018-09-30T02:03:33.001Z,609
2018-09-30T02:04:40.215Z,610
2018-09-30T02:05:47.166Z,609
2018-09-30T02:06:54.387Z,609
2018-09-30T02:08:01.633Z,609
2018-09-30T02:09:09.079Z,609
2018-09-30T02:10:16.288Z,608
2018-09-30T02:11:23.711Z,608
2018-09-30T02:12:30.926Z,608
2018-09-30T02:13:38.371Z,609
2018-09-30T02:14:45.601Z,608
2018-09-30T02:15:52.869Z,608
2018-09-30T02:17:00.082Z,608
2018-09-30T02:18:07.304Z,609
2018-09-30T02:19:14.519Z,609
2018-09-30T02:20:21.738Z,609
2018-09-30T02:21:28.950Z,609
2018-09-30T02:22:36.196Z,610
2018-09-30T02:23:43.418Z,610
2018-09-30T02:24:50.636Z,610
2018-09-30T02:25:57.858Z,608
2018-09-30T02:27:05.301Z,610
2018-09-30T02:28:12.515Z,611
2018-09-30T02:29:19.963Z,610
2018-09-30T02:30:27.178Z,611
2018-09-30T02:31:34.794Z,612
2018-09-30T02:32:42.018Z,610
2018-09-30T02:33:49.246Z,611
2018-09-30T02:34:56.210Z,610
2018-09-30T02:36:03.423Z,609
2018-09-30T02:37:10.650Z,608
2018-09-30T02:38:17.865Z,609
2018-09-30T02:39:24.846Z,609
2018-09-30T02:40:32.071Z,609
2018-09-30T02:41:39.285Z,610
2018-09-30T02:42:46.222Z,609
2018-09-30T02:43:53.441Z,609
2018-09-30T02:45:00.374Z,610
2018-09-30T02:46:07.584Z,610
2018-09-30T02:47:14.824Z,610
2018-09-30T02:48:22.038Z,610
2018-09-30T02:49:29.239Z,611
2018-09-30T02:50:36.456Z,610
2018-09-30T02:51:43.660Z,611
2018-09-30T02:52:50.868Z,612
2018-09-30T02:53:58.317Z,612
2018-09-30T02:55:05.531Z,613
2018-09-30T02:56:12.743Z,612
2018-09-30T02:57:19.947Z,614
2018-09-30T02:58:27.165Z,614
2018-09-30T02:59:34.371Z,615
2018-09-30T03:00:41.583Z,615
2018-09-30T03:01:48.801Z,613
2018-09-30T03:02:56.004Z,614
2018-09-30T03:04:03.221Z,614
2018-09-30T03:05:10.467Z,615
2018-09-30T03:06:17.691Z,615
2018-09-30T03:07:24.903Z,615
2018-09-30T03:08:31.877Z,615
2018-09-30T03:09:39.088Z,615
2018-09-30T03:10:46.297Z,616
2018-09-30T03:11:53.529Z,616
2018-09-30T03:13:00.739Z,617
2018-09-30T03:14:07.953Z,618
2018-09-30T03:15:29.845Z,618
2018-09-30T03:16:37.057Z,618
2018-09-30T03:17:44.281Z,619
2018-09-30T03:18:51.515Z,618
2018-09-30T03:19:58.461Z,617
2018-09-30T03:21:05.620Z,618
2018-09-30T03:22:12.829Z,620
2018-09-30T03:23:20.286Z,620
2018-09-30T03:24:27.229Z,620
2018-09-30T03:25:34.671Z,620
2018-09-30T03:26:41.891Z,621
2018-09-30T03:27:48.851Z,621
2018-09-30T03:28:55.793Z,622
2018-09-30T03:30:03.048Z,621
2018-09-30T03:31:10.275Z,622
2018-09-30T03:32:17.481Z,622
2018-09-30T03:33:24.704Z,623
2018-09-30T03:34:31.915Z,623
2018-09-30T03:35:38.856Z,623
2018-09-30T03:36:46.072Z,625
2018-09-30T03:37:53.001Z,625
2018-09-30T03:39:00.222Z,625
2018-09-30T03:40:07.433Z,627
2018-09-30T03:41:14.654Z,628
2018-09-30T03:42:21.879Z,627
2018-09-30T03:43:29.091Z,628
2018-09-30T03:44:36.316Z,629
2018-09-30T03:45:43.538Z,628
2018-09-30T22:00:06.942Z,660
2018-09-30T22:01:14.290Z,656
2018-09-30T22:02:21.287Z,656
2018-09-30T22:03:28.500Z,655
2018-09-30T22:04:35.468Z,655
2018-09-30T22:05:42.915Z,654
2018-09-30T22:06:50.125Z,655
2018-09-30T22:07:57.553Z,654
2018-09-30T22:09:04.798Z,654
2018-09-30T22:10:12.028Z,655
2018-09-30T22:11:19.263Z,654
2018-09-30T22:12:26.496Z,653
2018-09-30T22:13:33.720Z,654
2018-09-30T22:14:41.184Z,654
2018-09-30T22:15:48.424Z,653
2018-09-30T22:16:55.930Z,654
2018-09-30T22:18:03.145Z,648
2018-09-30T22:19:10.558Z,647
2018-09-30T22:20:17.850Z,648
2018-09-30T22:21:25.084Z,649
2018-09-30T22:22:32.297Z,648
2018-09-30T22:23:39.538Z,647
2018-09-30T22:24:46.761Z,648
2018-09-30T22:25:54.007Z,648
2018-09-30T22:27:01.659Z,647
2018-09-30T22:28:08.657Z,648
2018-09-30T22:29:15.880Z,646
2018-09-30T22:30:23.333Z,647
2018-09-30T22:31:30.292Z,647
2018-09-30T22:32:37.730Z,647
2018-09-30T22:33:44.952Z,646
2018-09-30T22:34:52.419Z,647
2018-09-30T22:35:59.638Z,647
2018-09-30T22:37:06.867Z,647
2018-09-30T22:38:14.087Z,647
2018-09-30T22:39:21.051Z,648
2018-09-30T22:40:28.577Z,649
2018-09-30T22:41:35.928Z,647
2018-09-30T22:42:43.161Z,648
2018-09-30T22:43:50.398Z,648
2018-09-30T22:44:57.643Z,648
2018-09-30T22:46:04.870Z,649
2018-09-30T22:47:12.081Z,650
2018-09-30T22:48:19.536Z,650
2018-09-30T22:49:26.751Z,652
2018-09-30T22:50:34.204Z,652
2018-09-30T22:51:41.413Z,651
2018-09-30T22:52:48.686Z,652
2018-09-30T22:53:55.917Z,654
2018-09-30T22:55:03.145Z,652
2018-09-30T22:56:10.361Z,651
2018-09-30T22:57:17.340Z,652
2018-09-30T22:58:24.547Z,653
2018-09-30T22:59:31.764Z,653
2018-09-30T23:00:38.975Z,654
2018-09-30T23:01:46.187Z,654
2018-09-30T23:02:53.398Z,654
2018-09-30T23:04:00.320Z,655
2018-09-30T23:05:07.549Z,657
2018-09-30T23:06:14.776Z,657
2018-09-30T23:07:21.985Z,657
2018-09-30T23:08:29.203Z,656
2018-09-30T23:09:36.418Z,658
2018-09-30T23:10:43.626Z,660
2018-09-30T23:11:50.837Z,659
2018-09-30T23:12:58.049Z,660
2018-09-30T23:14:05.268Z,661
2018-09-30T23:15:12.490Z,662
2018-09-30T23:16:19.437Z,661
2018-09-30T23:17:26.661Z,661
2018-09-30T23:18:33.873Z,662
2018-09-30T23:19:41.102Z,663
2018-09-30T23:20:48.036Z,662
2018-09-30T23:21:55.248Z,663
2018-09-30T23:23:02.160Z,663
2018-09-30T23:24:09.371Z,663
2018-09-30T23:25:16.313Z,663
2018-09-30T23:26:23.528Z,664
2018-09-30T23:27:30.739Z,664
2018-09-30T23:28:37.949Z,664
2018-09-30T23:29:45.164Z,664
2018-09-30T23:30:52.383Z,664
2018-09-30T23:31:59.596Z,665
2018-09-30T23:33:06.819Z,664
2018-09-30T23:34:14.031Z,664
2018-09-30T23:35:21.277Z,663
2018-09-30T23:36:28.212Z,663
2018-09-30T23:37:35.427Z,663
2018-09-30T23:38:42.643Z,662
2018-09-30T23:39:49.860Z,661
2018-09-30T23:40:57.114Z,660
2018-09-30T23:42:04.329Z,659
2018-09-30T23:43:11.532Z,659
2018-09-30T23:44:18.740Z,657
2018-09-30T23:45:25.965Z,657
2018-09-30T23:46:33.204Z,655
2018-09-30T23:47:40.423Z,653
2018-09-30T23:48:47.631Z,652
2018-09-30T23:49:54.574Z,651
2018-09-30T23:51:01.508Z,650
2018-09-30T23:52:08.732Z,647
2018-09-30T23:53:15.940Z,647
2018-09-30T23:54:22.875Z,646
2018-09-30T23:55:30.100Z,646
2018-09-30T23:56:37.309Z,646
2018-09-30T23:57:44.630Z,647
2018-09-30T23:58:51.928Z,646
2018-09-30T23:59:59.132Z,646
